sensor_id;sensor_type;location;lat;lon;timestamp;pressure;altitude;pressure_sealevel;temperature;humidity
21623;BME280;10973;46.706;12.340;2023-04-28T00:02:21;87544.28;;;10.75;50.54
21623;BME280;10973;46.706;12.340;2023-04-28T00:04:49;87540.13;;;10.71;50.69
21623;BME280;10973;46.706;12.340;2023-04-28T00:07:18;87537.81;;;10.66;50.74
21623;BME280;10973;46.706;12.340;2023-04-28T00:09:45;87531.00;;;10.61;50.86
21623;BME280;10973;46.706;12.340;2023-04-28T00:12:13;87534.75;;;10.57;50.92
21623;BME280;10973;46.706;12.340;2023-04-28T00:14:40;87526.81;;;10.53;50.61
21623;BME280;10973;46.706;12.340;2023-04-28T00:17:08;87523.81;;;10.51;50.59
21623;BME280;10973;46.706;12.340;2023-04-28T00:19:36;87517.72;;;10.47;50.35
21623;BME280;10973;46.706;12.340;2023-04-28T00:22:03;87520.72;;;10.42;50.43
21623;BME280;10973;46.706;12.340;2023-04-28T00:24:30;87526.34;;;10.41;50.21
21623;BME280;10973;46.706;12.340;2023-04-28T00:26:58;87523.31;;;10.39;50.13
21623;BME280;10973;46.706;12.340;2023-04-28T00:29:27;87521.78;;;10.34;49.93
21623;BME280;10973;46.706;12.340;2023-04-28T00:31:54;87523.56;;;10.23;50.24
21623;BME280;10973;46.706;12.340;2023-04-28T00:34:21;87527.31;;;10.22;50.14
21623;BME280;10973;46.706;12.340;2023-04-28T00:36:49;87534.78;;;10.17;50.21
21623;BME280;10973;46.706;12.340;2023-04-28T00:39:16;87522.72;;;10.12;50.06
21623;BME280;10973;46.706;12.340;2023-04-28T00:41:43;87518.84;;;10.02;50.08
21623;BME280;10973;46.706;12.340;2023-04-28T00:44:10;87513.91;;;9.97;50.21
21623;BME280;10973;46.706;12.340;2023-04-28T00:46:38;87511.25;;;9.94;50.08
21623;BME280;10973;46.706;12.340;2023-04-28T00:49:05;87510.09;;;9.95;49.93
21623;BME280;10973;46.706;12.340;2023-04-28T00:51:32;87499.13;;;9.86;49.96
21623;BME280;10973;46.706;12.340;2023-04-28T00:54:00;87505.06;;;9.79;49.86
21623;BME280;10973;46.706;12.340;2023-04-28T00:56:31;87520.78;;;9.72;50.03
21623;BME280;10973;46.706;12.340;2023-04-28T00:58:59;87512.13;;;9.68;50.18
21623;BME280;10973;46.706;12.340;2023-04-28T01:01:26;87518.50;;;9.67;50.18
21623;BME280;10973;46.706;12.340;2023-04-28T01:03:53;87518.84;;;9.66;50.01
21623;BME280;10973;46.706;12.340;2023-04-28T01:06:27;87517.28;;;9.58;50.06
21623;BME280;10973;46.706;12.340;2023-04-28T01:08:55;87515.69;;;9.50;50.27
21623;BME280;10973;46.706;12.340;2023-04-28T01:11:22;87508.06;;;9.41;50.36
21623;BME280;10973;46.706;12.340;2023-04-28T01:13:50;87514.41;;;9.37;50.63
21623;BME280;10973;46.706;12.340;2023-04-28T01:16:18;87520.75;;;9.32;50.58
21623;BME280;10973;46.706;12.340;2023-04-28T01:18:47;87524.09;;;9.29;50.69
21623;BME280;10973;46.706;12.340;2023-04-28T01:21:24;87523.34;;;9.28;50.58
21623;BME280;10973;46.706;12.340;2023-04-28T01:23:52;87521.78;;;9.24;50.47
21623;BME280;10973;46.706;12.340;2023-04-28T01:26:19;87526.66;;;9.22;50.55
21623;BME280;10973;46.706;12.340;2023-04-28T01:28:49;87527.72;;;9.17;50.72
21623;BME280;10973;46.706;12.340;2023-04-28T01:31:16;87522.78;;;9.12;51.06
21623;BME280;10973;46.706;12.340;2023-04-28T01:33:44;87522.00;;;9.12;51.05
21623;BME280;10973;46.706;12.340;2023-04-28T01:36:11;87526.56;;;9.15;51.23
21623;BME280;10973;46.706;12.340;2023-04-28T01:38:38;87531.06;;;9.14;51.14
21623;BME280;10973;46.706;12.340;2023-04-28T01:41:05;87525.81;;;9.14;51.09
21623;BME280;10973;46.706;12.340;2023-04-28T01:43:32;87535.91;;;9.12;51.24
21623;BME280;10973;46.706;12.340;2023-04-28T01:46:00;87525.75;;;9.11;51.50
21623;BME280;10973;46.706;12.340;2023-04-28T01:48:27;87531.00;;;9.11;51.57
21623;BME280;10973;46.706;12.340;2023-04-28T01:50:54;87522.78;;;9.12;51.43
21623;BME280;10973;46.706;12.340;2023-04-28T01:53:22;87522.78;;;9.12;51.30
21623;BME280;10973;46.706;12.340;2023-04-28T01:55:49;87519.34;;;9.08;51.49
21623;BME280;10973;46.706;12.340;2023-04-28T01:58:16;87517.47;;;9.09;51.61
21623;BME280;10973;46.706;12.340;2023-04-28T02:00:44;87520.47;;;9.11;51.53
21623;BME280;10973;46.706;12.340;2023-04-28T02:03:11;87522.38;;;9.10;51.50
21623;BME280;10973;46.706;12.340;2023-04-28T02:05:39;87525.34;;;9.09;51.54
21623;BME280;10973;46.706;12.340;2023-04-28T02:08:06;87522.72;;;9.09;51.59
21623;BME280;10973;46.706;12.340;2023-04-28T02:10:34;87519.69;;;9.07;51.62
21623;BME280;10973;46.706;12.340;2023-04-28T02:13:01;87521.97;;;9.08;51.50
21623;BME280;10973;46.706;12.340;2023-04-28T02:15:28;87517.78;;;9.04;51.64
21623;BME280;10973;46.706;12.340;2023-04-28T02:17:56;87508.78;;;9.05;51.67
21623;BME280;10973;46.706;12.340;2023-04-28T02:20:25;87511.78;;;9.03;51.68
21623;BME280;10973;46.706;12.340;2023-04-28T02:22:52;87509.09;;;9.00;51.90
21623;BME280;10973;46.706;12.340;2023-04-28T02:25:20;87500.03;;;8.97;51.93
21623;BME280;10973;46.706;12.340;2023-04-28T02:27:47;87510.22;;;8.99;51.95
21623;BME280;10973;46.706;12.340;2023-04-28T02:30:15;87503.09;;;8.99;51.92
21623;BME280;10973;46.706;12.340;2023-04-28T02:32:42;87509.06;;;8.96;52.18
21623;BME280;10973;46.706;12.340;2023-04-28T02:35:09;87509.81;;;8.97;51.92
21623;BME280;10973;46.706;12.340;2023-04-28T02:37:37;87505.25;;;8.90;52.00
21623;BME280;10973;46.706;12.340;2023-04-28T02:40:05;87502.84;;;8.82;52.21
21623;BME280;10973;46.706;12.340;2023-04-28T02:42:32;87500.28;;;8.85;52.08
21623;BME280;10973;46.706;12.340;2023-04-28T02:45:05;87498.75;;;8.84;51.97
21623;BME280;10973;46.706;12.340;2023-04-28T02:47:33;87501.69;;;8.79;52.01
21623;BME280;10973;46.706;12.340;2023-04-28T02:50:00;87513.22;;;8.71;52.04
21623;BME280;10973;46.706;12.340;2023-04-28T02:52:27;87512.44;;;8.67;52.26
21623;BME280;10973;46.706;12.340;2023-04-28T02:54:55;87513.50;;;8.63;52.33
21623;BME280;10973;46.706;12.340;2023-04-28T02:57:22;87512.72;;;8.62;52.38
21623;BME280;10973;46.706;12.340;2023-04-28T02:59:50;87521.31;;;8.59;52.46
21623;BME280;10973;46.706;12.340;2023-04-28T03:02:17;87523.94;;;8.59;52.50
21623;BME280;10973;46.706;12.340;2023-04-28T03:04:44;87517.94;;;8.58;52.58
21623;BME280;10973;46.706;12.340;2023-04-28T03:07:11;87517.88;;;8.55;52.58
21623;BME280;10973;46.706;12.340;2023-04-28T03:09:39;87509.97;;;8.51;52.74
21623;BME280;10973;46.706;12.340;2023-04-28T03:12:08;87516.72;;;8.52;52.67
21623;BME280;10973;46.706;12.340;2023-04-28T03:14:35;87515.94;;;8.52;52.72
21623;BME280;10973;46.706;12.340;2023-04-28T03:17:02;87512.19;;;8.49;52.73
21623;BME280;10973;46.706;12.340;2023-04-28T03:19:30;87508.75;;;8.45;52.82
21623;BME280;10973;46.706;12.340;2023-04-28T03:21:57;87511.50;;;8.30;52.57
21623;BME280;10973;46.706;12.340;2023-04-28T03:24:24;87500.34;;;8.36;52.48
21623;BME280;10973;46.706;12.340;2023-04-28T03:26:52;87494.78;;;8.38;52.47
21623;BME280;10973;46.706;12.340;2023-04-28T03:29:19;87486.06;;;8.34;52.93
21623;BME280;10973;46.706;12.340;2023-04-28T03:31:46;87492.06;;;8.34;52.99
21623;BME280;10973;46.706;12.340;2023-04-28T03:34:15;87483.88;;;8.36;52.85
21623;BME280;10973;46.706;12.340;2023-04-28T03:36:43;87484.97;;;8.35;53.01
21623;BME280;10973;46.706;12.340;2023-04-28T03:39:10;87480.47;;;8.35;53.03
21623;BME280;10973;46.706;12.340;2023-04-28T03:41:37;87474.75;;;8.30;53.22
21623;BME280;10973;46.706;12.340;2023-04-28T03:44:04;87475.16;;;8.32;53.13
21623;BME280;10973;46.706;12.340;2023-04-28T03:46:31;87480.06;;;8.33;53.13
21623;BME280;10973;46.706;12.340;2023-04-28T03:48:59;87471.84;;;8.35;53.12
21623;BME280;10973;46.706;12.340;2023-04-28T03:51:29;87467.38;;;8.39;52.79
21623;BME280;10973;46.706;12.340;2023-04-28T03:53:56;87471.47;;;8.36;52.97
21623;BME280;10973;46.706;12.340;2023-04-28T03:56:23;87471.84;;;8.35;52.86
21623;BME280;10973;46.706;12.340;2023-04-28T03:58:51;87471.44;;;8.33;52.86
21623;BME280;10973;46.706;12.340;2023-04-28T04:01:18;87470.50;;;8.22;52.84
21623;BME280;10973;46.706;12.340;2023-04-28T04:03:45;87478.31;;;8.18;52.81
21623;BME280;10973;46.706;12.340;2023-04-28T04:06:13;87479.47;;;8.21;52.78
21623;BME280;10973;46.706;12.340;2023-04-28T04:08:41;87472.56;;;8.09;52.99
21623;BME280;10973;46.706;12.340;2023-04-28T04:11:08;87474.88;;;8.14;52.79
21623;BME280;10973;46.706;12.340;2023-04-28T04:13:36;87473.78;;;8.15;53.17
21623;BME280;10973;46.706;12.340;2023-04-28T04:16:03;87468.88;;;8.14;53.36
21623;BME280;10973;46.706;12.340;2023-04-28T04:18:31;87471.56;;;8.17;53.17
21623;BME280;10973;46.706;12.340;2023-04-28T04:20:58;87459.81;;;8.11;53.48
21623;BME280;10973;46.706;12.340;2023-04-28T04:23:25;87459.09;;;8.11;53.63
21623;BME280;10973;46.706;12.340;2023-04-28T04:25:53;87464.38;;;8.14;53.63
21623;BME280;10973;46.706;12.340;2023-04-28T04:28:20;87477.91;;;8.16;53.35
21623;BME280;10973;46.706;12.340;2023-04-28T04:30:47;87472.66;;;8.16;53.32
21623;BME280;10973;46.706;12.340;2023-04-28T04:33:15;87480.13;;;8.14;53.24
21623;BME280;10973;46.706;12.340;2023-04-28T04:35:42;87478.56;;;8.10;53.54
21623;BME280;10973;46.706;12.340;2023-04-28T04:38:09;87488.28;;;8.09;53.25
21623;BME280;10973;46.706;12.340;2023-04-28T04:40:36;87486.78;;;8.08;53.52
21623;BME280;10973;46.706;12.340;2023-04-28T04:43:04;87486.06;;;8.11;53.52
21623;BME280;10973;46.706;12.340;2023-04-28T04:45:31;87483.81;;;8.10;53.67
21623;BME280;10973;46.706;12.340;2023-04-28T04:47:59;87497.28;;;8.08;54.03
21623;BME280;10973;46.706;12.340;2023-04-28T04:50:26;87502.53;;;8.08;54.08
21623;BME280;10973;46.706;12.340;2023-04-28T04:52:54;87501.78;;;8.08;54.08
21623;BME280;10973;46.706;12.340;2023-04-28T04:55:21;87509.00;;;8.14;54.07
21623;BME280;10973;46.706;12.340;2023-04-28T04:57:48;87505.28;;;8.15;54.09
21623;BME280;10973;46.706;12.340;2023-04-28T05:00:16;87505.28;;;8.15;53.93
21623;BME280;10973;46.706;12.340;2023-04-28T05:02:44;87505.28;;;8.15;54.07
21623;BME280;10973;46.706;12.340;2023-04-28T05:05:11;87521.84;;;8.19;53.98
21623;BME280;10973;46.706;12.340;2023-04-28T05:07:45;87514.72;;;8.20;54.14
21623;BME280;10973;46.706;12.340;2023-04-28T05:10:12;87519.63;;;8.21;54.21
21623;BME280;10973;46.706;12.340;2023-04-28T05:12:40;87518.16;;;8.24;54.26
21623;BME280;10973;46.706;12.340;2023-04-28T05:15:07;87520.16;;;8.30;54.62
21623;BME280;10973;46.706;12.340;2023-04-28T05:17:35;87515.66;;;8.31;54.37
21623;BME280;10973;46.706;12.340;2023-04-28T05:20:03;87515.00;;;8.37;54.40
21623;BME280;10973;46.706;12.340;2023-04-28T05:22:30;87503.03;;;8.40;54.48
21623;BME280;10973;46.706;12.340;2023-04-28T05:24:57;87508.34;;;8.43;54.54
21623;BME280;10973;46.706;12.340;2023-04-28T05:27:25;87508.34;;;8.43;54.72
21623;BME280;10973;46.706;12.340;2023-04-28T05:29:52;87511.03;;;8.47;54.66
21623;BME280;10973;46.706;12.340;2023-04-28T05:32:19;87514.06;;;8.49;54.47
21623;BME280;10973;46.706;12.340;2023-04-28T05:34:47;87517.47;;;8.53;54.90
21623;BME280;10973;46.706;12.340;2023-04-28T05:37:15;87501.75;;;8.56;54.87
21623;BME280;10973;46.706;12.340;2023-04-28T05:39:42;87504.09;;;8.61;54.89
21623;BME280;10973;46.706;12.340;2023-04-28T05:42:09;87504.19;;;8.69;54.71
21623;BME280;10973;46.706;12.340;2023-04-28T05:44:37;87505.72;;;8.70;55.01
21623;BME280;10973;46.706;12.340;2023-04-28T05:47:04;87514.66;;;8.65;55.17
21623;BME280;10973;46.706;12.340;2023-04-28T05:49:31;87506.06;;;8.68;55.01
21623;BME280;10973;46.706;12.340;2023-04-28T05:51:58;87508.06;;;8.78;54.66
21623;BME280;10973;46.706;12.340;2023-04-28T05:54:26;87512.69;;;8.88;54.43
21623;BME280;10973;46.706;12.340;2023-04-28T05:56:53;87504.16;;;8.95;54.40
21623;BME280;10973;46.706;12.340;2023-04-28T05:59:20;87503.50;;;9.01;54.20
21623;BME280;10973;46.706;12.340;2023-04-28T06:01:47;87490.38;;;9.05;54.47
21623;BME280;10973;46.706;12.340;2023-04-28T06:04:15;87499.13;;;9.12;54.36
21623;BME280;10973;46.706;12.340;2023-04-28T06:06:43;87484.91;;;9.17;54.73
21623;BME280;10973;46.706;12.340;2023-04-28T06:09:11;87491.34;;;9.23;54.69
21623;BME280;10973;46.706;12.340;2023-04-28T06:11:38;87489.88;;;9.25;54.40
21623;BME280;10973;46.706;12.340;2023-04-28T06:14:05;87493.75;;;9.35;54.39
21623;BME280;10973;46.706;12.340;2023-04-28T06:16:33;87488.56;;;9.42;54.59
21623;BME280;10973;46.706;12.340;2023-04-28T06:19:00;87485.25;;;9.49;54.51
21623;BME280;10973;46.706;12.340;2023-04-28T06:21:27;87484.09;;;9.50;54.36
21623;BME280;10973;46.706;12.340;2023-04-28T06:23:55;87492.47;;;9.59;54.21
21623;BME280;10973;46.706;12.340;2023-04-28T06:26:23;87498.56;;;9.66;54.00
21623;BME280;10973;46.706;12.340;2023-04-28T06:28:50;87507.22;;;9.67;53.88
21623;BME280;10973;46.706;12.340;2023-04-28T06:31:17;87506.84;;;9.65;54.14
21623;BME280;10973;46.706;12.340;2023-04-28T06:33:44;87509.88;;;9.70;54.17
21623;BME280;10973;46.706;12.340;2023-04-28T06:36:12;87509.16;;;9.73;53.96
21623;BME280;10973;46.706;12.340;2023-04-28T06:38:40;87519.00;;;9.80;53.73
21623;BME280;10973;46.706;12.340;2023-04-28T06:41:07;87525.78;;;9.81;53.51
21623;BME280;10973;46.706;12.340;2023-04-28T06:43:34;87526.53;;;9.81;53.63
21623;BME280;10973;46.706;12.340;2023-04-28T06:46:02;87511.09;;;9.76;54.05
21623;BME280;10973;46.706;12.340;2023-04-28T06:48:29;87514.03;;;9.71;54.48
21623;BME280;10973;46.706;12.340;2023-04-28T06:50:57;87528.38;;;9.77;54.33
21623;BME280;10973;46.706;12.340;2023-04-28T06:53:24;87530.72;;;9.86;54.44
21623;BME280;10973;46.706;12.340;2023-04-28T06:55:52;87533.06;;;9.94;53.94
21623;BME280;10973;46.706;12.340;2023-04-28T06:58:19;87530.09;;;9.99;53.95
21623;BME280;10973;46.706;12.340;2023-04-28T07:00:47;87538.78;;;10.03;54.12
21623;BME280;10973;46.706;12.340;2023-04-28T07:03:14;87531.69;;;10.07;53.51
21623;BME280;10973;46.706;12.340;2023-04-28T07:05:41;87540.00;;;10.13;53.82
21623;BME280;10973;46.706;12.340;2023-04-28T07:08:09;87542.66;;;10.13;54.11
21623;BME280;10973;46.706;12.340;2023-04-28T07:10:36;87538.19;;;10.17;53.70
21623;BME280;10973;46.706;12.340;2023-04-28T07:13:03;87531.44;;;10.20;53.43
21623;BME280;10973;46.706;12.340;2023-04-28T07:15:31;87543.53;;;10.24;53.65
21623;BME280;10973;46.706;12.340;2023-04-28T07:17:59;87535.25;;;10.26;53.97
21623;BME280;10973;46.706;12.340;2023-04-28T07:20:26;87537.56;;;10.31;54.09
21623;BME280;10973;46.706;12.340;2023-04-28T07:22:54;87537.88;;;10.26;54.62
21623;BME280;10973;46.706;12.340;2023-04-28T07:25:21;87528.47;;;10.25;54.47
21623;BME280;10973;46.706;12.340;2023-04-28T07:27:48;87525.47;;;10.26;54.74
21623;BME280;10973;46.706;12.340;2023-04-28T07:30:16;87526.59;;;10.25;55.33
21623;BME280;10973;46.706;12.340;2023-04-28T07:32:55;87534.50;;;10.25;55.39
21623;BME280;10973;46.706;12.340;2023-04-28T07:35:23;87533.72;;;10.25;55.70
21623;BME280;10973;46.706;12.340;2023-04-28T07:37:52;87537.44;;;10.20;56.03
21623;BME280;10973;46.706;12.340;2023-04-28T07:40:20;87529.22;;;10.22;56.00
21623;BME280;10973;46.706;12.340;2023-04-28T07:42:47;87528.41;;;10.18;56.30
21623;BME280;10973;46.706;12.340;2023-04-28T07:45:14;87528.41;;;10.18;56.56
21623;BME280;10973;46.706;12.340;2023-04-28T07:47:42;87534.00;;;10.13;57.01
21623;BME280;10973;46.706;12.340;2023-04-28T07:50:10;87531.00;;;10.14;57.12
21623;BME280;10973;46.706;12.340;2023-04-28T07:52:38;87536.28;;;10.18;57.40
21623;BME280;10973;46.706;12.340;2023-04-28T07:55:06;87534.75;;;10.13;57.88
21623;BME280;10973;46.706;12.340;2023-04-28T07:57:34;87532.88;;;10.14;58.25
21623;BME280;10973;46.706;12.340;2023-04-28T08:00:02;87535.88;;;10.12;58.72
21623;BME280;10973;46.706;12.340;2023-04-28T08:02:30;87535.50;;;10.14;58.88
21623;BME280;10973;46.706;12.340;2023-04-28T08:04:58;87544.19;;;10.14;59.19
21623;BME280;10973;46.706;12.340;2023-04-28T08:07:26;87543.06;;;10.15;59.42
21623;BME280;10973;46.706;12.340;2023-04-28T08:09:54;87550.56;;;10.13;59.39
21623;BME280;10973;46.706;12.340;2023-04-28T08:12:21;87536.94;;;10.07;59.35
21623;BME280;10973;46.706;12.340;2023-04-28T08:14:49;87547.88;;;10.10;58.93
21623;BME280;10973;46.706;12.340;2023-04-28T08:17:17;87539.22;;;10.09;58.80
21623;BME280;10973;46.706;12.340;2023-04-28T08:19:44;87553.84;;;10.06;58.63
21623;BME280;10973;46.706;12.340;2023-04-28T08:22:12;87549.41;;;10.11;58.51
21623;BME280;10973;46.706;12.340;2023-04-28T08:24:39;87553.59;;;10.15;58.31
21623;BME280;10973;46.706;12.340;2023-04-28T08:27:06;87553.56;;;10.12;58.02
21623;BME280;10973;46.706;12.340;2023-04-28T08:29:34;87548.69;;;10.14;58.11
21623;BME280;10973;46.706;12.340;2023-04-28T08:32:01;87550.97;;;10.15;58.45
21623;BME280;10973;46.706;12.340;2023-04-28T08:34:28;87552.47;;;10.16;58.16
21623;BME280;10973;46.706;12.340;2023-04-28T08:36:56;87550.59;;;10.17;58.12
21623;BME280;10973;46.706;12.340;2023-04-28T08:39:24;87550.56;;;10.13;57.61
21623;BME280;10973;46.706;12.340;2023-04-28T08:41:52;87556.94;;;10.12;57.55
21623;BME280;10973;46.706;12.340;2023-04-28T08:44:19;87550.59;;;10.17;57.58
21623;BME280;10973;46.706;12.340;2023-04-28T08:46:51;87555.50;;;10.18;57.80
21623;BME280;10973;46.706;12.340;2023-04-28T08:49:28;87551.00;;;10.19;57.81
21623;BME280;10973;46.706;12.340;2023-04-28T08:52:00;87545.34;;;10.20;57.77
21623;BME280;10973;46.706;12.340;2023-04-28T08:54:30;87552.91;;;10.22;57.90
21623;BME280;10973;46.706;12.340;2023-04-28T08:56:58;87548.81;;;10.28;58.07
21623;BME280;10973;46.706;12.340;2023-04-28T08:59:26;87549.97;;;10.34;58.30
21623;BME280;10973;46.706;12.340;2023-04-28T09:01:54;87557.16;;;10.37;58.24
21623;BME280;10973;46.706;12.340;2023-04-28T09:04:21;87560.22;;;10.42;57.93
21623;BME280;10973;46.706;12.340;2023-04-28T09:06:49;87556.50;;;10.47;57.78
21623;BME280;10973;46.706;12.340;2023-04-28T09:09:22;87554.28;;;10.52;57.84
21623;BME280;10973;46.706;12.340;2023-04-28T09:11:58;87554.66;;;10.51;57.77
21623;BME280;10973;46.706;12.340;2023-04-28T09:14:32;87548.25;;;10.52;57.13
21623;BME280;10973;46.706;12.340;2023-04-28T09:17:01;87547.56;;;10.58;56.63
21623;BME280;10973;46.706;12.340;2023-04-28T09:19:36;87541.91;;;10.60;56.68
21623;BME280;10973;46.706;12.340;2023-04-28T09:22:05;87546.88;;;10.68;56.54
21623;BME280;10973;46.706;12.340;2023-04-28T09:24:52;87541.66;;;10.75;55.71
21623;BME280;10973;46.706;12.340;2023-04-28T09:27:27;87536.06;;;10.84;56.40
21623;BME280;10973;46.706;12.340;2023-04-28T09:29:55;87530.06;;;10.87;56.47
21623;BME280;10973;46.706;12.340;2023-04-28T09:32:23;87527.44;;;10.91;55.93
21623;BME280;10973;46.706;12.340;2023-04-28T09:34:53;87532.78;;;11.01;55.84
21623;BME280;10973;46.706;12.340;2023-04-28T09:37:26;87536.59;;;11.07;54.47
21623;BME280;10973;46.706;12.340;2023-04-28T09:39:54;87527.13;;;11.03;54.15
21623;BME280;10973;46.706;12.340;2023-04-28T09:45:11;87524.97;;;11.19;54.59
21623;BME280;10973;46.706;12.340;2023-04-28T09:47:41;87519.34;;;11.24;54.24
21623;BME280;10973;46.706;12.340;2023-04-28T09:50:12;87517.84;;;11.26;52.64
21623;BME280;10973;46.706;12.340;2023-04-28T09:52:44;87513.72;;;11.32;52.81
21623;BME280;10973;46.706;12.340;2023-04-28T09:55:12;87509.94;;;11.30;52.51
21623;BME280;10973;46.706;12.340;2023-04-28T09:57:41;87513.34;;;11.30;52.92
21623;BME280;10973;46.706;12.340;2023-04-28T10:00:11;87508.03;;;11.27;52.88
21623;BME280;10973;46.706;12.340;2023-04-28T10:02:38;87507.28;;;11.26;53.88
21623;BME280;10973;46.706;12.340;2023-04-28T10:05:08;87502.72;;;11.20;54.37
21623;BME280;10973;46.706;12.340;2023-04-28T10:07:38;87506.47;;;11.15;53.98
21623;BME280;10973;46.706;12.340;2023-04-28T10:10:07;87502.72;;;11.20;53.84
21623;BME280;10973;46.706;12.340;2023-04-28T10:12:35;87500.13;;;11.23;54.25
21623;BME280;10973;46.706;12.340;2023-04-28T10:15:03;87501.56;;;11.14;54.63
21623;BME280;10973;46.706;12.340;2023-04-28T10:17:32;87494.03;;;11.12;55.33
21623;BME280;10973;46.706;12.340;2023-04-28T10:20:04;87486.09;;;11.09;56.15
21623;BME280;10973;46.706;12.340;2023-04-28T10:25:56;87482.00;;;11.15;57.03
21623;BME280;10973;46.706;12.340;2023-04-28T10:28:24;87473.31;;;11.18;56.46
21623;BME280;10973;46.706;12.340;2023-04-28T10:31:13;87474.84;;;11.19;56.68
21623;BME280;10973;46.706;12.340;2023-04-28T10:33:48;87480.09;;;11.15;57.29
21623;BME280;10973;46.706;12.340;2023-04-28T10:36:48;87483.09;;;11.14;56.49
21623;BME280;10973;46.706;12.340;2023-04-28T10:39:17;87478.13;;;10.98;56.42
21623;BME280;10973;46.706;12.340;2023-04-28T10:41:46;87491.66;;;10.93;56.92
21623;BME280;10973;46.706;12.340;2023-04-28T10:47:06;87484.13;;;10.95;56.50
21623;BME280;10973;46.706;12.340;2023-04-28T10:55:30;87483.38;;;10.91;57.76
21623;BME280;10973;46.706;12.340;2023-04-28T11:00:44;87464.56;;;11.00;57.41
21623;BME280;10973;46.706;12.340;2023-04-28T11:12:05;87465.38;;;11.07;56.75
21623;BME280;10973;46.706;12.340;2023-04-28T11:14:37;87456.31;;;11.01;57.06
21623;BME280;10973;46.706;12.340;2023-04-28T11:17:10;87448.03;;;11.06;57.39
21623;BME280;10973;46.706;12.340;2023-04-28T11:19:41;87448.78;;;11.07;57.71
21623;BME280;10973;46.706;12.340;2023-04-28T11:22:16;87450.34;;;11.15;57.54
21623;BME280;10973;46.706;12.340;2023-04-28T11:25:01;87455.97;;;11.13;57.62
21623;BME280;10973;46.706;12.340;2023-04-28T11:27:32;87456.75;;;11.14;57.27
21623;BME280;10973;46.706;12.340;2023-04-28T11:30:00;87454.47;;;11.12;57.07
21623;BME280;10973;46.706;12.340;2023-04-28T11:32:33;87461.63;;;11.15;56.71
21623;BME280;10973;46.706;12.340;2023-04-28T11:35:02;87451.47;;;11.10;56.51
21623;BME280;10973;46.706;12.340;2023-04-28T11:37:30;87459.72;;;11.09;56.24
21623;BME280;10973;46.706;12.340;2023-04-28T11:39:57;87459.00;;;11.08;56.73
21623;BME280;10973;46.706;12.340;2023-04-28T11:42:24;87455.25;;;11.13;56.73
21623;BME280;10973;46.706;12.340;2023-04-28T11:44:54;87454.13;;;11.17;56.51
21623;BME280;10973;46.706;12.340;2023-04-28T11:47:32;87459.00;;;11.15;56.85
21623;BME280;10973;46.706;12.340;2023-04-28T11:50:02;87454.47;;;11.12;56.92
21623;BME280;10973;46.706;12.340;2023-04-28T11:52:30;87455.97;;;11.10;57.35
21623;BME280;10973;46.706;12.340;2023-04-28T11:54:58;87457.47;;;11.11;57.50
21623;BME280;10973;46.706;12.340;2023-04-28T11:57:29;87451.47;;;11.10;57.66
21623;BME280;10973;46.706;12.340;2023-04-28T12:00:14;87444.69;;;11.13;56.45
21623;BME280;10973;46.706;12.340;2023-04-28T12:02:42;87440.16;;;11.13;56.43
21623;BME280;10973;46.706;12.340;2023-04-28T12:05:10;87449.59;;;11.14;56.06
21623;BME280;10973;46.706;12.340;2023-04-28T12:07:44;87449.56;;;11.07;55.85
21623;BME280;10973;46.706;12.340;2023-04-28T12:10:15;87442.44;;;11.15;55.98
21623;BME280;10973;46.706;12.340;2023-04-28T12:12:44;87442.06;;;11.16;56.94
21623;BME280;10973;46.706;12.340;2023-04-28T12:15:20;87444.31;;;11.18;56.69
21623;BME280;10973;46.706;12.340;2023-04-28T12:17:49;87442.44;;;11.18;56.56
21623;BME280;10973;46.706;12.340;2023-04-28T12:20:36;87438.69;;;11.23;56.79
21623;BME280;10973;46.706;12.340;2023-04-28T12:23:05;87441.72;;;11.28;57.33
21623;BME280;10973;46.706;12.340;2023-04-28T12:25:32;87432.69;;;11.29;57.42
21623;BME280;10973;46.706;12.340;2023-04-28T12:28:04;87425.16;;;11.35;57.24
21623;BME280;10973;46.706;12.340;2023-04-28T12:30:35;87418.78;;;11.39;57.05
21623;BME280;10973;46.706;12.340;2023-04-28T12:33:02;87408.59;;;11.41;57.27
21623;BME280;10973;46.706;12.340;2023-04-28T12:35:30;87402.19;;;11.42;57.08
21623;BME280;10973;46.706;12.340;2023-04-28T12:37:57;87412.75;;;11.46;56.66
21623;BME280;10973;46.706;12.340;2023-04-28T12:40:25;87405.59;;;11.46;57.14
21623;BME280;10973;46.706;12.340;2023-04-28T12:42:53;87401.06;;;11.51;57.14
21623;BME280;10973;46.706;12.340;2023-04-28T12:45:20;87392.78;;;11.52;56.97
21623;BME280;10973;46.706;12.340;2023-04-28T12:47:48;87401.09;;;11.58;56.72
21623;BME280;10973;46.706;12.340;2023-04-28T12:50:15;87409.00;;;11.58;56.50
21623;BME280;10973;46.706;12.340;2023-04-28T12:52:42;87406.75;;;11.60;56.64
21623;BME280;10973;46.706;12.340;2023-04-28T12:55:10;87413.94;;;11.63;56.19
21623;BME280;10973;46.706;12.340;2023-04-28T12:57:37;87410.13;;;11.64;55.16
21623;BME280;10973;46.706;12.340;2023-04-28T13:00:07;87406.38;;;11.61;54.27
21623;BME280;10973;46.706;12.340;2023-04-28T13:02:34;87405.25;;;11.66;54.24
21623;BME280;10973;46.706;12.340;2023-04-28T13:05:02;87402.66;;;11.69;54.17
21623;BME280;10973;46.706;12.340;2023-04-28T13:07:30;87400.00;;;11.73;54.21
21623;BME280;10973;46.706;12.340;2023-04-28T13:09:57;87393.59;;;11.74;54.17
21623;BME280;10973;46.706;12.340;2023-04-28T13:12:25;87392.84;;;11.73;54.74
21623;BME280;10973;46.706;12.340;2023-04-28T13:14:55;87394.72;;;11.73;55.16
21623;BME280;10973;46.706;12.340;2023-04-28T13:17:22;87389.44;;;11.73;55.69
21623;BME280;10973;46.706;12.340;2023-04-28T13:19:49;87389.09;;;11.74;55.49
21623;BME280;10973;46.706;12.340;2023-04-28T13:22:17;87381.53;;;11.73;55.23
21623;BME280;10973;46.706;12.340;2023-04-28T13:24:44;87392.09;;;11.80;55.19
21623;BME280;10973;46.706;12.340;2023-04-28T13:27:12;87378.91;;;11.76;54.56
21623;BME280;10973;46.706;12.340;2023-04-28T13:29:39;87381.56;;;11.83;55.01